Time;durP1;ratioP1;P1;durP2;ratioP2;P2;SDS_P1;SDS_P2;PMS_P1;PMS_P2;Temp;Humidity;BMP_temperature;BMP_pressure;BME280_temperature;BME280_humidity;BME280_pressure;Samples;Min_cycle;Max_cycle;Signal;HPM_P1;HPM_P2
2021/12/16 00:31:45;;;;;;;29.13;11.57;;;8.50;99.90;;;;;;4981588;28;20059;-62
2021/12/16 00:34:12;;;;;;;26.88;11.18;;;8.50;99.90;;;;;;4965436;28;20059;-62
2021/12/16 00:36:41;;;;;;;24.20;10.73;;;8.60;99.90;;;;;;4981793;28;20050;-62
2021/12/16 00:39:10;;;;;;;30.67;11.55;;;8.60;99.90;;;;;;4982001;28;20086;-62
2021/12/16 00:41:38;;;;;;;34.13;11.77;;;8.60;99.90;;;;;;4937337;28;20085;-62
2021/12/16 00:44:12;;;;;;;27.88;11.10;;;8.60;99.90;;;;;;5005750;28;20100;-62
2021/12/16 00:49:34;;;;;;;32.13;12.40;;;8.60;99.90;;;;;;5062377;28;20044;-62
2021/12/16 00:54:53;;;;;;;37.80;12.25;;;8.60;99.90;;;;;;5043217;28;20050;-63
2021/12/16 00:57:19;;;;;;;24.63;11.45;;;8.70;99.90;;;;;;5052985;28;20210;-62
2021/12/16 00:59:48;;;;;;;31.88;11.55;;;8.70;99.90;;;;;;5027254;28;20148;-62
2021/12/16 01:02:46;;;;;;;32.13;12.65;;;8.70;99.90;;;;;;5043961;28;20096;-62
2021/12/16 01:35:19;;;;;;;29.90;10.98;;;8.70;99.90;;;;;;5062306;28;20049;-62
2021/12/16 01:51:17;;;;;;;31.50;9.68;;;8.80;99.90;;;;;;5061881;28;20125;-62
2021/12/16 01:56:38;;;;;;;23.85;10.63;;;8.80;99.90;;;;;;5061908;28;20073;-62
2021/12/16 01:59:05;;;;;;;26.17;9.55;;;8.80;99.90;;;;;;5025826;28;20118;-62
2021/12/16 02:01:34;;;;;;;28.17;9.57;;;8.80;99.90;;;;;;5028928;28;20048;-62
2021/12/16 02:04:12;;;;;;;28.83;8.63;;;8.80;99.90;;;;;;5043465;28;20045;-62
2021/12/16 02:09:08;;;;;;;29.38;9.25;;;8.80;99.90;;;;;;5061453;28;20044;-62
2021/12/16 02:37:48;;;;;;;31.67;9.95;;;8.90;99.90;;;;;;5060134;28;20087;-62
2021/12/16 02:40:17;;;;;;;28.60;9.55;;;8.90;99.90;;;;;;5043635;28;20387;-62
2021/12/16 02:50:48;;;;;;;31.52;9.95;;;8.90;99.90;;;;;;5065232;28;20045;-62
2021/12/16 02:53:13;;;;;;;26.67;9.82;;;8.80;99.90;;;;;;5046330;28;20056;-62
2021/12/16 02:55:39;;;;;;;21.02;9.40;;;8.80;99.90;;;;;;5065165;28;20045;-62
2021/12/16 02:58:05;;;;;;;23.02;9.95;;;8.70;99.90;;;;;;5064906;28;20088;-62
2021/12/16 03:00:38;;;;;;;30.30;10.20;;;8.70;99.90;;;;;;5046372;28;20044;-62
2021/12/16 03:03:04;;;;;;;23.58;10.13;;;8.70;99.90;;;;;;5037817;28;20049;-62
2021/12/16 03:05:31;;;;;;;24.85;10.73;;;8.70;99.90;;;;;;5039490;28;20446;-62
2021/12/16 03:07:57;;;;;;;28.45;10.93;;;8.70;99.90;;;;;;5046612;28;20049;-62
2021/12/16 03:13:06;;;;;;;27.38;11.18;;;8.60;99.90;;;;;;5045458;28;20045;-62
2021/12/16 03:20:50;;;;;;;25.00;11.02;;;8.50;99.90;;;;;;5065227;28;20052;-62
2021/12/16 03:37:15;;;;;;;28.40;11.23;;;8.30;99.90;;;;;;5044524;28;20132;-62
2021/12/16 03:39:52;;;;;;;23.73;10.35;;;8.30;99.90;;;;;;5062988;28;20053;-62
2021/12/16 03:42:37;;;;;;;27.20;10.95;;;8.20;99.90;;;;;;5046382;28;20098;-62
2021/12/16 03:48:27;;;;;;;26.05;10.70;;;8.20;99.90;;;;;;4946900;29;20051;-62
2021/12/16 03:50:53;;;;;;;25.75;10.38;;;8.10;99.90;;;;;;4947219;29;20051;-62
2021/12/16 03:53:19;;;;;;;26.25;11.23;;;8.10;99.90;;;;;;4946910;29;20062;-62
2021/12/16 03:55:46;;;;;;;30.27;11.07;;;8.10;99.90;;;;;;4964489;28;20203;-62
2021/12/16 03:58:13;;;;;;;31.50;10.75;;;8.10;99.90;;;;;;4959673;29;20051;-62
2021/12/16 04:00:44;;;;;;;24.13;11.13;;;8.10;99.90;;;;;;4963517;29;20144;-62
2021/12/16 04:03:11;;;;;;;29.13;11.18;;;8.00;99.90;;;;;;4959324;29;20440;-62
2021/12/16 04:05:37;;;;;;;20.90;10.07;;;8.00;99.90;;;;;;4947259;29;20063;-62
2021/12/16 04:08:05;;;;;;;25.55;12.98;;;8.00;99.90;;;;;;4962603;29;20058;-62
2021/12/16 04:11:01;;;;;;;27.70;11.27;;;7.90;99.90;;;;;;4962916;29;20054;-62
2021/12/16 04:13:27;;;;;;;28.65;11.15;;;7.90;99.90;;;;;;4955270;29;20153;-62
2021/12/16 04:15:53;;;;;;;26.33;11.10;;;7.90;99.90;;;;;;4946962;29;20478;-63
2021/12/16 04:18:19;;;;;;;33.72;12.32;;;7.90;99.90;;;;;;4962294;29;20204;-62
2021/12/16 04:20:46;;;;;;;31.75;11.63;;;7.90;99.90;;;;;;4946613;29;20047;-62
2021/12/16 04:23:13;;;;;;;24.55;11.55;;;7.90;99.90;;;;;;4930956;29;20085;-62
2021/12/16 04:25:41;;;;;;;;;;;7.90;99.90;;;;;;4999489;28;20057;-62
2021/12/16 04:28:10;;;;;;;;;;;7.90;99.90;;;;;;5017602;28;19925;-62
2021/12/16 04:30:36;;;;;;;29.58;12.90;;;7.90;99.90;;;;;;5045769;28;19959;-62
2021/12/16 04:33:02;;;;;;;28.90;11.93;;;7.90;99.90;;;;;;5044433;28;20100;-62
2021/12/16 04:35:28;;;;;;;;;;;7.90;99.90;;;;;;5045824;28;20186;-62
2021/12/16 04:37:54;;;;;;;21.08;11.23;;;7.90;99.90;;;;;;5044561;28;19928;-61
2021/12/16 04:40:20;;;;;;;;;;;7.90;99.90;;;;;;5063232;28;20038;-63
2021/12/16 04:42:47;;;;;;;24.48;12.07;;;7.90;99.90;;;;;;5063362;28;19991;-62
2021/12/16 04:45:18;;;;;;;36.63;12.40;;;7.80;99.90;;;;;;5063148;28;20045;-63
2021/12/16 04:47:44;;;;;;;33.40;12.32;;;7.90;99.90;;;;;;5062518;28;20038;-62
2021/12/16 04:50:12;;;;;;;24.92;12.18;;;7.80;99.90;;;;;;5053862;28;20107;-62
2021/12/16 04:52:38;;;;;;;34.30;12.23;;;7.80;99.90;;;;;;5045549;28;20093;-62
2021/12/16 04:55:06;;;;;;;28.48;11.90;;;7.80;99.90;;;;;;5045689;28;20060;-62
2021/12/16 04:57:32;;;;;;;31.48;12.27;;;7.80;99.90;;;;;;5053868;28;20431;-62
2021/12/16 04:59:58;;;;;;;28.85;12.32;;;7.70;99.90;;;;;;5037318;28;20077;-62
2021/12/16 05:02:25;;;;;;;29.52;11.27;;;7.70;99.90;;;;;;5036294;28;20129;-62
2021/12/16 05:04:52;;;;;;;29.63;11.88;;;7.60;99.90;;;;;;5042642;28;20779;-62
2021/12/16 05:07:22;;;;;;;28.40;12.52;;;7.60;99.90;;;;;;5043998;28;20033;-62
2021/12/16 05:12:20;;;;;;;26.10;11.70;;;7.50;99.90;;;;;;5045900;28;20045;-62
2021/12/16 05:14:47;;;;;;;27.08;11.82;;;7.50;99.90;;;;;;5044401;28;20053;-62
2021/12/16 05:17:27;;;;;;;29.90;11.48;;;7.50;99.90;;;;;;5036929;28;20094;-62
2021/12/16 05:19:55;;;;;;;36.83;11.80;;;7.50;99.90;;;;;;5018097;28;20106;-62
2021/12/16 05:25:14;;;;;;;34.58;12.07;;;7.40;99.90;;;;;;5021099;28;20133;-62
2021/12/16 05:27:40;;;;;;;33.05;12.48;;;7.40;99.90;;;;;;5022521;28;20462;-62
2021/12/16 05:30:06;;;;;;;35.87;12.50;;;7.40;99.90;;;;;;5020606;28;20052;-62
2021/12/16 05:32:31;;;;;;;31.83;13.05;;;7.40;99.90;;;;;;5021184;28;20296;-62
2021/12/16 05:34:57;;;;;;;32.30;11.90;;;7.40;99.90;;;;;;5020991;28;20052;-62
2021/12/16 05:37:23;;;;;;;26.63;11.97;;;7.50;99.90;;;;;;5022589;28;20331;-62
2021/12/16 05:39:49;;;;;;;32.40;12.70;;;7.50;99.90;;;;;;5020806;28;20060;-62
2021/12/16 05:42:14;;;;;;;33.17;12.90;;;7.50;99.90;;;;;;5017179;28;20038;-62
2021/12/16 05:44:40;;;;;;;28.63;11.80;;;7.60;99.90;;;;;;5020170;28;20049;-62
2021/12/16 05:47:06;;;;;;;28.42;11.45;;;7.60;99.90;;;;;;5021255;28;20048;-62
2021/12/16 05:49:32;;;;;;;31.30;11.43;;;7.60;99.90;;;;;;5022019;28;20050;-62
2021/12/16 05:51:58;;;;;;;28.80;11.77;;;7.60;99.90;;;;;;5022135;28;20053;-62
2021/12/16 05:54:24;;;;;;;24.42;11.10;;;7.60;99.90;;;;;;5017922;28;20050;-62
2021/12/16 05:56:49;;;;;;;32.72;11.80;;;7.60;99.90;;;;;;5022223;28;20458;-62
2021/12/16 05:59:18;;;;;;;29.35;11.48;;;7.70;99.90;;;;;;5022642;28;20054;-62
2021/12/16 06:01:46;;;;;;;27.55;11.82;;;7.70;99.90;;;;;;5021868;28;20456;-62
2021/12/16 06:04:13;;;;;;;31.98;11.25;;;7.60;99.90;;;;;;5018608;28;20093;-62
2021/12/16 06:06:39;;;;;;;33.05;12.65;;;7.60;99.90;;;;;;5022068;28;20160;-62
2021/12/16 06:09:07;;;;;;;28.75;11.73;;;7.60;99.90;;;;;;5021108;28;20114;-62
2021/12/16 06:11:34;;;;;;;27.60;11.38;;;7.60;99.90;;;;;;5020493;28;20355;-62
2021/12/16 06:22:31;;;;;;;38.92;11.88;;;7.70;99.90;;;;;;5065216;28;20088;-62
2021/12/16 06:27:46;;;;;;;42.83;14.77;;;7.70;99.90;;;;;;5045716;28;20113;-62
2021/12/16 06:30:16;;;;;;;27.02;13.13;;;7.70;99.90;;;;;;5028381;28;20084;-62
2021/12/16 06:32:42;;;;;;;30.48;12.75;;;7.70;99.90;;;;;;5047276;28;20053;-62
2021/12/16 06:35:09;;;;;;;;;;;7.70;99.90;;;;;;5029635;28;20057;-62
2021/12/16 06:37:35;;;;;;;39.05;14.40;;;7.70;99.90;;;;;;5061096;28;19944;-62
2021/12/16 06:40:03;;;;;;;33.63;13.00;;;7.70;99.90;;;;;;5034868;28;20072;-62
2021/12/16 06:42:30;;;;;;;30.40;13.90;;;7.70;99.90;;;;;;5064937;28;20061;-62
2021/12/16 06:45:03;;;;;;;35.28;14.32;;;7.70;99.90;;;;;;5080928;28;20109;-62
2021/12/16 06:47:38;;;;;;;30.00;14.43;;;7.70;99.90;;;;;;5078648;28;20041;-61
2021/12/16 06:50:05;;;;;;;41.53;14.70;;;7.70;99.90;;;;;;5047275;28;20053;-61
2021/12/16 06:52:37;;;;;;;;;;;7.70;99.90;;;;;;5065531;28;20127;-62
2021/12/16 07:00:15;;;;;;;39.72;15.35;;;7.70;99.90;;;;;;5065256;28;20484;-62
2021/12/16 07:05:14;;;;;;;36.92;15.63;;;7.70;99.90;;;;;;5044919;28;20045;-62
2021/12/16 07:07:40;;;;;;;36.30;15.25;;;7.70;99.90;;;;;;5040088;28;20155;-64
2021/12/16 07:10:09;;;;;;;42.78;14.82;;;7.70;99.90;;;;;;5037572;28;20118;-62
2021/12/16 07:12:36;;;;;;;46.63;17.38;;;7.70;99.90;;;;;;5027142;28;20050;-62
2021/12/16 07:15:13;;;;;;;32.50;13.73;;;7.70;99.90;;;;;;5040183;28;20045;-62
2021/12/16 07:17:41;;;;;;;43.53;14.43;;;7.70;99.90;;;;;;5045766;28;20056;-61
2021/12/16 07:20:09;;;;;;;39.53;15.85;;;7.70;99.90;;;;;;5046152;28;20053;-61
2021/12/16 07:22:35;;;;;;;34.90;15.73;;;7.70;99.90;;;;;;5064513;28;20037;-62
2021/12/16 07:25:04;;;;;;;29.35;14.65;;;7.70;99.90;;;;;;5064462;28;20109;-64
2021/12/16 07:27:31;;;;;;;44.33;14.75;;;7.70;99.90;;;;;;5063926;28;20045;-62
2021/12/16 07:29:57;;;;;;;41.05;16.55;;;7.70;99.90;;;;;;5062957;28;20108;-62
2021/12/16 07:32:22;;;;;;;42.10;15.05;;;7.70;99.90;;;;;;5064140;28;20041;-62
2021/12/16 07:34:48;;;;;;;29.98;14.18;;;7.70;99.90;;;;;;5045124;28;20048;-62
2021/12/16 07:37:14;;;;;;;35.92;14.63;;;7.60;99.90;;;;;;5045518;28;20037;-63
2021/12/16 07:39:42;;;;;;;40.27;15.03;;;7.60;99.90;;;;;;5061647;28;20127;-64
2021/12/16 07:42:11;;;;;;;35.22;14.07;;;7.60;99.90;;;;;;5061273;28;20052;-64
2021/12/16 07:44:37;;;;;;;34.45;14.60;;;7.60;99.90;;;;;;5062671;28;20064;-66
2021/12/16 07:47:10;;;;;;;39.42;14.85;;;7.60;99.90;;;;;;5064150;28;20041;-64
2021/12/16 07:49:40;;;;;;;38.67;15.07;;;7.60;99.90;;;;;;5044745;28;20045;-63
2021/12/16 07:52:09;;;;;;;38.08;15.50;;;7.60;99.90;;;;;;5061585;28;20048;-63
2021/12/16 07:54:37;;;;;;;45.45;15.45;;;7.60;99.90;;;;;;5064260;28;20556;-63
2021/12/16 07:57:04;;;;;;;47.53;16.42;;;7.60;99.90;;;;;;5045954;28;20041;-63
2021/12/16 07:59:31;;;;;;;46.35;16.40;;;7.60;99.90;;;;;;5063913;28;20056;-64
2021/12/16 08:01:58;;;;;;;53.85;16.48;;;7.60;99.90;;;;;;5048692;28;20038;-63
2021/12/16 08:04:29;;;;;;;39.10;15.65;;;7.60;99.90;;;;;;5037066;28;20057;-62
2021/12/16 08:06:59;;;;;;;39.22;16.35;;;7.60;99.90;;;;;;5044876;28;20041;-63
2021/12/16 08:09:25;;;;;;;39.20;16.25;;;7.60;99.90;;;;;;5036098;28;20048;-63
2021/12/16 08:11:52;;;;;;;41.60;15.88;;;7.50;99.90;;;;;;5061488;28;20060;-64
2021/12/16 08:14:19;;;;;;;53.35;16.70;;;7.50;99.90;;;;;;5042219;28;20053;-64
2021/12/16 08:16:46;;;;;;;39.63;15.80;;;7.50;99.90;;;;;;5059914;28;20045;-64
2021/12/16 08:19:12;;;;;;;39.25;17.15;;;7.50;99.90;;;;;;5058660;28;20069;-63
2021/12/16 08:21:39;;;;;;;45.70;17.15;;;7.50;99.90;;;;;;5059359;28;20041;-61
2021/12/16 08:24:08;;;;;;;34.92;16.05;;;7.50;99.90;;;;;;5066863;28;20072;-61
2021/12/16 08:26:35;;;;;;;43.42;16.80;;;7.50;99.90;;;;;;5059347;28;20098;-63
2021/12/16 08:29:04;;;;;;;38.22;15.75;;;7.60;99.90;;;;;;5056332;28;20057;-63
2021/12/16 08:31:29;;;;;;;41.97;16.95;;;7.60;99.90;;;;;;5025422;28;20064;-62
2021/12/16 08:33:57;;;;;;;37.55;16.58;;;7.60;99.90;;;;;;5041887;28;20132;-63
2021/12/16 08:36:23;;;;;;;38.28;15.85;;;7.60;99.90;;;;;;5044634;28;20037;-64
2021/12/16 08:38:49;;;;;;;;;;;7.70;99.90;;;;;;5059728;28;20041;-64
2021/12/16 08:41:28;;;;;;;47.60;17.52;;;7.60;99.90;;;;;;5058833;28;19921;-64
2021/12/16 08:43:54;;;;;;;65.30;17.42;;;7.70;99.90;;;;;;5058816;28;20079;-65
2021/12/16 08:46:22;;;;;;;52.50;17.98;;;7.80;99.90;;;;;;5040040;28;20060;-65
2021/12/16 08:48:49;;;;;;;43.20;17.95;;;7.80;99.90;;;;;;5041074;28;20051;-63
2021/12/16 08:51:18;;;;;;;55.33;19.55;;;7.80;99.90;;;;;;5058316;28;20055;-64
2021/12/16 08:53:44;;;;;;;49.03;18.05;;;7.80;99.90;;;;;;5056963;28;20056;-64
2021/12/16 08:56:12;;;;;;;53.15;19.25;;;7.90;99.90;;;;;;5055596;28;20061;-65
2021/12/16 08:58:38;;;;;;;43.78;19.08;;;7.90;99.90;;;;;;5057839;28;20089;-70
2021/12/16 09:01:15;;;;;;;42.90;19.52;;;7.90;99.90;;;;;;5045526;28;20440;-64
2021/12/16 09:03:41;;;;;;;46.95;20.05;;;7.90;99.90;;;;;;5047224;28;20104;-65
2021/12/16 09:06:08;;;;;;;52.97;19.90;;;7.90;99.90;;;;;;5044009;28;20150;-64
2021/12/16 09:08:34;;;;;;;56.80;21.08;;;8.00;99.90;;;;;;5045801;28;20049;-65
2021/12/16 09:11:04;;;;;;;53.58;21.38;;;8.00;99.90;;;;;;5058291;28;20041;-64
2021/12/16 09:13:30;;;;;;;53.25;21.98;;;8.00;99.90;;;;;;5057892;28;20048;-65
2021/12/16 09:16:01;;;;;;;69.47;22.77;;;8.00;99.90;;;;;;5056607;28;20481;-64
2021/12/16 09:18:31;;;;;;;59.30;23.60;;;8.00;99.90;;;;;;5055507;28;20091;-66
2021/12/16 09:21:00;;;;;;;65.07;23.02;;;8.00;99.90;;;;;;5052960;28;20064;-65
2021/12/16 09:23:26;;;;;;;66.43;23.45;;;8.00;99.90;;;;;;5039576;28;20357;-64
2021/12/16 09:25:53;;;;;;;58.95;22.92;;;8.00;99.90;;;;;;5042897;28;20044;-66
2021/12/16 09:28:27;;;;;;;61.45;23.70;;;8.00;99.90;;;;;;5057538;28;20075;-64
2021/12/16 09:30:53;;;;;;;67.57;23.40;;;8.10;99.90;;;;;;5042523;28;20053;-65
2021/12/16 09:33:22;;;;;;;74.25;22.95;;;8.10;99.90;;;;;;5041180;28;20149;-65
2021/12/16 09:35:52;;;;;;;90.60;25.13;;;8.10;99.90;;;;;;5040771;28;20053;-65
2021/12/16 09:38:19;;;;;;;68.60;23.42;;;8.20;99.90;;;;;;5055409;28;20051;-65
2021/12/16 09:40:50;;;;;;;69.78;24.00;;;8.20;99.90;;;;;;5059535;28;20037;-66
2021/12/16 09:43:23;;;;;;;96.68;26.63;;;8.20;99.90;;;;;;5057461;28;20037;-65
2021/12/16 09:45:49;;;;;;;84.03;24.80;;;8.30;99.90;;;;;;5059534;28;20048;-71
2021/12/16 09:48:17;;;;;;;115.35;25.23;;;8.30;99.90;;;;;;5061122;28;20052;-71
2021/12/16 09:50:42;;;;;;;90.25;25.40;;;8.30;99.90;;;;;;5059261;28;20144;-65
2021/12/16 09:53:09;;;;;;;119.85;26.85;;;8.30;99.90;;;;;;5060704;28;20049;-64
2021/12/16 09:55:34;;;;;;;;;;;8.30;99.90;;;;;;5062220;28;20037;-65
2021/12/16 09:58:03;;;;;;;148.25;25.80;;;8.20;99.90;;;;;;5048640;28;19971;-62
2021/12/16 10:00:31;;;;;;;170.35;25.63;;;8.30;99.90;;;;;;5062615;28;20073;-66
2021/12/16 10:03:01;;;;;;;102.82;25.30;;;8.30;99.90;;;;;;5047722;28;20064;-65
2021/12/16 10:05:28;;;;;;;182.73;32.30;;;8.30;99.90;;;;;;5048901;28;20045;-64
2021/12/16 10:07:54;;;;;;;101.28;27.98;;;8.30;99.90;;;;;;5044549;28;20052;-64
2021/12/16 10:10:24;;;;;;;166.18;28.38;;;8.30;99.90;;;;;;5046334;28;20056;-64
2021/12/16 10:12:53;;;;;;;133.60;29.00;;;8.30;99.90;;;;;;5044247;28;20085;-64
2021/12/16 10:18:20;;;;;;;200.88;25.90;;;8.40;99.90;;;;;;4999338;28;20058;-65
2021/12/16 10:21:04;;;;;;;188.75;27.13;;;8.40;99.90;;;;;;4985922;28;20058;-65
2021/12/16 10:23:44;;;;;;;139.77;25.73;;;8.40;99.90;;;;;;4967070;28;20062;-65
2021/12/16 10:26:17;;;;;;;141.60;27.77;;;8.40;99.90;;;;;;4972675;28;20507;-65
2021/12/16 10:28:46;;;;;;;87.35;26.48;;;8.50;99.90;;;;;;4994841;28;20055;-65
2021/12/16 10:31:24;;;;;;;123.70;27.42;;;8.50;99.90;;;;;;4992818;28;20046;-65
2021/12/16 10:34:05;;;;;;;168.95;31.13;;;8.50;99.90;;;;;;4986436;28;20051;-65
2021/12/16 10:36:45;;;;;;;130.15;27.17;;;8.50;99.90;;;;;;4985188;28;20063;-67
2021/12/16 10:39:17;;;;;;;88.70;25.90;;;8.60;99.90;;;;;;4969903;28;20056;-66
2021/12/16 10:41:49;;;;;;;128.70;27.52;;;8.60;99.90;;;;;;4962346;28;20104;-67
2021/12/16 10:44:17;;;;;;;177.40;29.65;;;8.60;99.90;;;;;;4983696;28;20062;-67
2021/12/16 10:46:44;;;;;;;143.50;26.45;;;8.60;99.90;;;;;;4982678;28;20958;-67
2021/12/16 10:49:20;;;;;;;184.68;30.48;;;8.60;99.90;;;;;;4982799;28;20138;-67
2021/12/16 10:51:57;;;;;;;146.43;28.75;;;8.60;99.90;;;;;;4986688;28;20127;-66
2021/12/16 10:54:29;;;;;;;122.28;24.85;;;8.60;99.90;;;;;;5000347;28;20053;-68
2021/12/16 10:57:09;;;;;;;128.93;26.55;;;8.60;99.90;;;;;;5043245;28;20052;-67
2021/12/16 10:59:44;;;;;;;88.40;27.00;;;8.60;99.90;;;;;;5061309;28;20055;-67
2021/12/16 11:02:19;;;;;;;146.45;26.48;;;8.70;99.90;;;;;;5042587;28;20132;-68
2021/12/16 11:05:02;;;;;;;128.82;25.90;;;8.70;99.90;;;;;;5064068;28;20032;-65
2021/12/16 11:07:38;;;;;;;98.63;23.40;;;8.70;99.90;;;;;;5027236;28;20055;-63
2021/12/16 11:10:15;;;;;;;117.53;25.90;;;8.70;99.90;;;;;;5042917;28;20176;-61
2021/12/16 11:12:46;;;;;;;101.30;23.48;;;8.70;99.90;;;;;;5042585;28;20294;-61
2021/12/16 11:15:30;;;;;;;60.63;20.60;;;8.70;99.90;;;;;;5043486;28;20057;-64
2021/12/16 11:18:07;;;;;;;148.20;24.98;;;8.70;99.90;;;;;;5037768;28;20072;-63
2021/12/16 11:20:42;;;;;;;78.68;25.15;;;8.70;99.90;;;;;;5037185;28;20045;-61
2021/12/16 11:23:08;;;;;;;113.60;25.75;;;8.80;99.90;;;;;;5067524;28;20045;-62
2021/12/16 11:25:41;;;;;;;91.07;23.87;;;8.80;99.90;;;;;;5039946;28;20068;-62
2021/12/16 11:28:15;;;;;;;107.93;25.48;;;8.80;99.90;;;;;;5037896;28;20140;-63
2021/12/16 11:30:42;;;;;;;108.43;25.95;;;8.80;99.90;;;;;;5036229;28;20092;-65
2021/12/16 11:33:18;;;;;;;74.88;25.00;;;8.80;99.90;;;;;;5036603;28;20061;-64
2021/12/16 11:36:06;;;;;;;70.60;25.25;;;8.90;99.90;;;;;;5036096;28;20136;-65
2021/12/16 11:38:40;;;;;;;71.63;25.40;;;8.90;99.90;;;;;;5036366;28;20080;-62
2021/12/16 11:41:17;;;;;;;66.18;25.30;;;8.90;99.90;;;;;;5038827;28;20119;-63
2021/12/16 11:44:00;;;;;;;72.68;26.02;;;8.90;99.90;;;;;;5065165;28;20042;-61
2021/12/16 11:46:52;;;;;;;74.95;25.58;;;8.90;99.90;;;;;;5036608;28;20113;-62
2021/12/16 11:49:34;;;;;;;80.38;24.75;;;8.90;99.90;;;;;;5037461;28;20058;-62
2021/12/16 11:52:06;;;;;;;69.57;23.77;;;8.90;99.90;;;;;;5036222;28;20048;-64
2021/12/16 11:54:35;;;;;;;67.18;24.48;;;8.90;99.90;;;;;;5032769;28;20485;-63
2021/12/16 11:57:18;;;;;;;69.00;24.58;;;8.90;99.90;;;;;;5034856;28;20063;-63
2021/12/16 11:59:49;;;;;;;63.20;24.98;;;8.90;99.90;;;;;;5027380;28;20037;-63
2021/12/16 12:02:32;;;;;;;81.18;26.63;;;9.00;99.90;;;;;;5028153;28;20053;-66
2021/12/16 12:05:32;;;;;;;71.72;24.80;;;9.00;99.90;;;;;;5039247;28;20041;-63
2021/12/16 12:08:04;;;;;;;63.80;23.40;;;9.00;99.90;;;;;;5037530;28;20045;-64
2021/12/16 12:10:38;;;;;;;94.63;23.38;;;9.00;99.90;;;;;;5039874;28;20071;-63
2021/12/16 12:13:07;;;;;;;79.78;24.25;;;8.90;99.90;;;;;;5061339;28;20104;-63
2021/12/16 12:16:06;;;;;;;67.40;23.63;;;8.90;99.90;;;;;;5038969;28;20056;-62
2021/12/16 13:28:04;;;;;;;48.67;21.52;;;9.10;99.90;;;;;;5039348;28;20484;-64
2021/12/16 13:30:42;;;;;;;52.85;21.10;;;9.10;99.90;;;;;;5037445;28;20071;-66
2021/12/16 13:33:26;;;;;;;45.72;19.90;;;9.10;99.90;;;;;;5038929;28;20051;-66
2021/12/16 13:36:03;;;;;;;47.53;19.38;;;9.20;99.90;;;;;;5039862;28;20080;-64
2021/12/16 13:38:42;;;;;;;46.17;20.48;;;9.20;99.90;;;;;;5037792;28;20064;-64
2021/12/16 13:41:16;;;;;;;50.20;20.15;;;9.20;99.90;;;;;;5036418;28;20045;-64
2021/12/16 13:44:06;;;;;;;49.30;21.05;;;9.20;99.90;;;;;;5034165;28;20068;-63
2021/12/16 13:47:28;;;;;;;52.65;22.30;;;9.20;99.90;;;;;;5038002;28;20389;-64
2021/12/16 14:05:16;;;;;;;54.70;18.70;;;9.30;99.90;;;;;;5037825;28;20060;-66
2021/12/16 14:07:57;;;;;;;55.20;19.50;;;9.30;99.90;;;;;;5038161;28;20087;-63
2021/12/16 14:10:58;;;;;;;47.60;18.80;;;9.30;99.90;;;;;;5035659;28;20046;-63
2021/12/16 14:16:24;;;;;;;61.58;20.13;;;9.30;99.90;;;;;;5038081;28;20045;-65
2021/12/16 14:38:13;;;;;;;30.38;11.75;;;9.20;99.90;;;;;;5036405;28;20049;-66
2021/12/16 14:41:08;;;;;;;42.53;12.23;;;9.20;99.90;;;;;;5043398;28;20072;-66
2021/12/16 14:43:54;;;;;;;89.40;18.20;;;9.20;99.90;;;;;;5035995;28;20049;-66
2021/12/16 14:46:25;;;;;;;199.82;28.15;;;9.20;99.90;;;;;;5042995;28;20053;-65
2021/12/16 14:48:51;;;;;;;117.35;21.25;;;9.20;99.90;;;;;;5038102;28;20136;-65
2021/12/16 14:51:17;;;;;;;47.53;13.27;;;9.20;99.90;;;;;;5039571;28;20103;-66
2021/12/16 14:53:46;;;;;;;30.85;11.57;;;9.20;99.90;;;;;;5041902;28;20116;-67
2021/12/16 14:56:14;;;;;;;36.65;12.15;;;9.10;99.90;;;;;;5041524;28;20092;-68
2021/12/16 14:58:42;;;;;;;33.65;13.10;;;9.10;99.90;;;;;;5043021;28;20419;-69
2021/12/16 15:01:14;;;;;;;45.00;14.93;;;9.10;99.90;;;;;;5035299;28;20156;-68
2021/12/16 15:03:42;;;;;;;47.30;14.18;;;9.10;99.90;;;;;;5033229;28;20053;-67
2021/12/16 15:06:16;;;;;;;33.63;13.77;;;9.10;99.90;;;;;;5041519;28;20099;-66
2021/12/16 15:08:54;;;;;;;46.58;14.48;;;9.10;99.90;;;;;;5038189;28;20061;-68
2021/12/16 15:11:46;;;;;;;42.67;14.65;;;9.10;99.90;;;;;;5042333;28;20041;-68
2021/12/16 15:14:32;;;;;;;50.30;15.40;;;9.10;99.90;;;;;;5039576;28;20081;-66
2021/12/16 15:17:19;;;;;;;59.88;16.67;;;9.00;99.90;;;;;;5063709;28;20072;-72
2021/12/16 15:44:11;;;;;;;54.60;19.00;;;8.90;99.90;;;;;;4976829;28;20111;-63
2021/12/16 15:46:38;;;;;;;45.70;18.02;;;8.90;99.90;;;;;;4981717;28;20139;-63
2021/12/16 15:49:04;;;;;;;56.25;23.58;;;8.90;99.90;;;;;;4960814;28;20106;-60
2021/12/16 15:51:30;;;;;;;;;;;8.80;99.90;;;;;;4957384;28;20054;-63
2021/12/16 15:54:00;;;;;;;47.42;17.10;;;8.80;99.90;;;;;;4970985;28;20062;-62
2021/12/16 15:56:30;;;;;;;43.63;16.83;;;8.80;99.90;;;;;;4983380;28;20130;-66
2021/12/16 15:59:04;;;;;;;44.33;17.67;;;8.80;99.90;;;;;;4965010;28;20059;-60
2021/12/16 16:01:34;;;;;;;49.05;18.23;;;8.90;99.90;;;;;;4965798;28;20043;-64
2021/12/16 16:04:06;;;;;;;53.58;19.58;;;8.80;99.90;;;;;;4976277;28;20134;-62
2021/12/16 16:06:32;;;;;;;59.80;20.17;;;8.80;99.90;;;;;;5042122;28;20092;-64
2021/12/16 16:09:02;;;;;;;48.40;18.33;;;8.80;99.90;;;;;;5040670;28;20053;-65
2021/12/16 16:11:33;;;;;;;59.95;18.40;;;8.80;99.90;;;;;;5060592;28;20045;-64
2021/12/16 16:14:03;;;;;;;60.38;19.45;;;8.90;99.90;;;;;;5042311;28;20582;-64
2021/12/16 16:16:38;;;;;;;54.50;18.38;;;8.90;99.90;;;;;;5036124;28;20102;-64
2021/12/16 16:19:05;;;;;;;61.45;20.20;;;8.90;99.90;;;;;;5024230;28;20053;-63
2021/12/16 16:21:41;;;;;;;57.67;18.88;;;8.90;99.90;;;;;;5040146;28;20152;-64
2021/12/16 16:24:13;;;;;;;63.72;19.50;;;8.90;99.90;;;;;;5041862;28;20128;-65
2021/12/16 16:26:41;;;;;;;59.08;19.83;;;8.90;99.90;;;;;;5041073;28;20099;-66
2021/12/16 16:29:14;;;;;;;57.28;19.20;;;8.90;99.90;;;;;;5041738;28;20120;-63
2021/12/16 16:31:42;;;;;;;76.53;22.45;;;8.90;99.90;;;;;;5038065;28;20143;-63
2021/12/16 16:34:18;;;;;;;66.13;23.17;;;8.90;99.90;;;;;;5038181;28;20061;-63
2021/12/16 16:36:49;;;;;;;63.67;22.57;;;8.90;99.90;;;;;;5041908;28;20127;-64
2021/12/16 16:39:18;;;;;;;72.15;23.38;;;8.90;99.90;;;;;;5041678;28;20107;-64
2021/12/16 16:41:48;;;;;;;67.88;21.33;;;9.00;99.90;;;;;;5039876;28;20101;-64
2021/12/16 16:44:16;;;;;;;65.25;21.27;;;8.90;99.90;;;;;;5040318;28;20498;-65
2021/12/16 16:46:58;;;;;;;70.22;21.65;;;8.90;99.90;;;;;;5041257;28;20041;-64
2021/12/16 16:49:33;;;;;;;72.82;22.38;;;9.00;99.90;;;;;;5039672;28;20124;-64
2021/12/16 16:52:02;;;;;;;69.85;22.98;;;8.90;99.90;;;;;;5040264;28;20136;-65
2021/12/16 16:54:28;;;;;;;69.82;23.25;;;9.00;99.90;;;;;;5040424;28;20041;-63
2021/12/16 16:57:49;;;;;;;80.20;23.30;;;9.00;99.90;;;;;;5040525;28;20048;-59
2021/12/16 17:00:31;;;;;;;70.50;24.00;;;9.00;99.90;;;;;;4984547;28;20315;-66
2021/12/16 17:03:07;;;;;;;80.30;24.20;;;9.00;99.90;;;;;;4992962;28;20062;-64
2021/12/16 17:05:50;;;;;;;89.55;25.13;;;9.00;99.90;;;;;;4996937;28;20042;-65
2021/12/16 17:08:24;;;;;;;85.65;24.90;;;9.00;99.90;;;;;;4995673;28;20046;-60
2021/12/16 17:11:12;;;;;;;95.30;27.33;;;9.00;99.90;;;;;;4997257;28;20065;-63
2021/12/16 17:13:57;;;;;;;79.07;25.90;;;9.00;99.90;;;;;;4995778;28;20524;-62
2021/12/16 17:19:18;;;;;;;89.63;25.67;;;9.00;99.90;;;;;;4974619;28;20070;-62
2021/12/16 17:21:48;;;;;;;82.03;25.23;;;9.00;99.90;;;;;;4979230;28;20046;-66
2021/12/16 17:24:20;;;;;;;89.85;25.15;;;9.00;99.90;;;;;;4982100;28;20058;-65
2021/12/16 17:26:53;;;;;;;98.60;27.02;;;9.00;99.90;;;;;;4997465;28;20055;-67
2021/12/16 17:29:30;;;;;;;77.75;24.42;;;9.00;99.90;;;;;;4992126;28;20054;-67
2021/12/16 17:32:11;;;;;;;78.25;25.23;;;9.00;99.90;;;;;;4981202;28;20196;-65
2021/12/16 17:34:42;;;;;;;94.70;25.98;;;9.00;99.90;;;;;;4982541;28;21268;-65
2021/12/16 17:37:28;;;;;;;94.78;25.77;;;9.00;99.90;;;;;;5019633;28;20042;-72
2021/12/16 17:40:06;;;;;;;88.55;26.23;;;9.10;99.90;;;;;;5011677;28;20126;-69
2021/12/16 17:42:41;;;;;;;85.53;26.85;;;9.00;99.90;;;;;;5014934;28;20093;-67
2021/12/16 17:45:12;;;;;;;118.53;29.23;;;9.00;99.90;;;;;;5014227;28;20105;-66
2021/12/16 17:47:38;;;;;;;111.97;29.58;;;9.00;99.90;;;;;;5019470;28;20068;-65
2021/12/16 17:50:16;;;;;;;94.85;28.42;;;9.10;99.90;;;;;;4996922;28;20046;-68
2021/12/16 17:52:44;;;;;;;99.88;29.50;;;9.10;99.90;;;;;;5019853;28;20099;-68
2021/12/16 17:55:16;;;;;;;99.70;27.73;;;9.10;99.90;;;;;;5021517;28;20521;-67
2021/12/16 17:57:46;;;;;;;93.00;26.58;;;9.10;99.90;;;;;;5019429;28;20049;-67
2021/12/16 18:00:37;;;;;;;102.40;28.50;;;9.10;99.90;;;;;;5018640;28;20077;-67
2021/12/16 18:03:04;;;;;;;80.50;27.17;;;9.10;99.90;;;;;;5019111;28;20069;-62
2021/12/16 18:05:47;;;;;;;89.22;26.48;;;9.10;99.90;;;;;;5014866;28;20081;-68